Time;durP1;ratioP1;P1;durP2;ratioP2;P2;SDS_P1;SDS_P2;PMS_P1;PMS_P2;Temp;Humidity;BMP_temperature;BMP_pressure;BME280_temperature;BME280_humidity;BME280_pressure;Samples;Min_cycle;Max_cycle;Signal;HPM_P1;HPM_P2
2023/01/25 00:01:54;;;;;;;41.45;25.90;;;;;;;1.86;100.00;103889.88;5069136;28;20036;-70
2023/01/25 00:04:20;;;;;;;47.85;27.42;;;;;;;1.73;100.00;103889.28;5068519;28;20054;-64
2023/01/25 00:06:46;;;;;;;44.45;26.92;;;;;;;1.79;100.00;103891.28;5069011;28;20127;-69
2023/01/25 00:09:11;;;;;;;40.75;26.35;;;;;;;1.81;100.00;103881.88;5067545;28;20120;-71
2023/01/25 00:11:37;;;;;;;43.28;26.90;;;;;;;1.69;100.00;103882.13;5067229;28;20048;-70
2023/01/25 00:14:03;;;;;;;45.50;25.77;;;;;;;1.70;100.00;103872.59;5067913;28;20029;-70
2023/01/25 00:16:29;;;;;;;47.17;26.25;;;;;;;1.82;100.00;103874.94;5068170;28;20039;-68
2023/01/25 00:18:54;;;;;;;42.72;27.30;;;;;;;1.75;100.00;103871.16;5067952;28;20033;-70
2023/01/25 00:21:21;;;;;;;45.47;27.60;;;;;;;1.69;100.00;103863.94;5068836;28;20083;-70
2023/01/25 00:23:47;;;;;;;43.78;26.00;;;;;;;1.76;100.00;103858.22;5068876;28;20463;-70
2023/01/25 00:26:13;;;;;;;45.65;27.48;;;;;;;1.80;100.00;103855.78;5068966;28;20036;-71
2023/01/25 00:28:38;;;;;;;45.80;28.00;;;;;;;1.73;100.00;103845.06;5068033;28;20035;-67
2023/01/25 00:31:05;;;;;;;46.55;27.92;;;;;;;1.78;100.00;103847.91;5068554;28;20461;-69
2023/01/25 00:33:37;;;;;;;44.40;25.73;;;;;;;1.77;100.00;103839.22;5067206;28;20391;-70
2023/01/25 00:36:20;;;;;;;47.47;27.83;;;;;;;1.56;100.00;103844.19;5067748;28;20025;-70
2023/01/25 00:38:46;;;;;;;43.92;26.75;;;;;;;1.64;100.00;103845.50;5050199;28;20119;-70
2023/01/25 00:41:12;;;;;;;45.80;27.13;;;;;;;1.66;100.00;103839.47;5068794;28;20474;-69
2023/01/25 00:43:37;;;;;;;47.88;27.88;;;;;;;1.66;100.00;103837.78;5066972;28;20028;-71
2023/01/25 00:46:02;;;;;;;45.72;26.65;;;;;;;1.70;100.00;103838.81;5068597;28;20056;-70
2023/01/25 00:48:28;;;;;;;46.80;26.20;;;;;;;1.71;100.00;103841.50;5066961;28;20030;-67
2023/01/25 00:50:53;;;;;;;45.85;26.45;;;;;;;1.65;100.00;103841.16;5049946;28;20118;-68
2023/01/25 00:53:18;;;;;;;42.72;26.63;;;;;;;1.68;100.00;103836.13;5048612;28;20040;-68
2023/01/25 00:55:51;;;;;;;47.92;26.95;;;;;;;1.69;100.00;103831.84;5047997;28;20029;-68
2023/01/25 00:58:16;;;;;;;46.70;27.02;;;;;;;1.71;100.00;103835.38;5048826;28;20052;-71
2023/01/25 01:00:42;;;;;;;45.78;26.70;;;;;;;1.64;100.00;103845.50;5048294;28;20029;-71
2023/01/25 01:03:07;;;;;;;44.35;27.15;;;;;;;1.67;100.00;103836.03;5047758;28;20033;-68
2023/01/25 01:05:34;;;;;;;44.92;25.85;;;;;;;1.70;100.00;103839.72;5048142;28;20112;-68
2023/01/25 01:08:00;;;;;;;45.13;25.88;;;;;;;1.65;100.00;103835.97;5048445;28;20107;-67
2023/01/25 01:10:25;;;;;;;43.63;25.58;;;;;;;1.63;100.00;103832.41;5051258;28;20455;-70
2023/01/25 01:12:51;;;;;;;47.05;27.70;;;;;;;1.54;100.00;103837.13;5052852;28;20033;-67
2023/01/25 01:15:16;;;;;;;45.47;26.52;;;;;;;1.47;100.00;103833.28;5054247;28;20029;-65
2023/01/25 01:17:41;;;;;;;41.38;24.50;;;;;;;1.50;100.00;103829.16;5070710;28;20135;-64
2023/01/25 01:20:07;;;;;;;44.30;26.00;;;;;;;1.56;100.00;103825.97;5070755;28;20701;-71
2023/01/25 01:22:33;;;;;;;45.55;26.13;;;;;;;1.57;100.00;103816.50;5071679;28;20052;-71
2023/01/25 01:24:58;;;;;;;45.40;25.92;;;;;;;1.57;100.00;103826.88;5072124;28;20095;-70
2023/01/25 01:27:23;;;;;;;43.42;25.90;;;;;;;1.55;100.00;103834.59;5071817;28;20060;-69
2023/01/25 01:29:49;;;;;;;46.33;27.30;;;;;;;1.56;100.00;103825.13;5072393;28;20087;-69
2023/01/25 01:32:14;;;;;;;41.45;25.33;;;;;;;1.45;100.00;103825.44;5071162;28;20103;-70
2023/01/25 01:34:40;;;;;;;46.25;26.83;;;;;;;1.43;100.00;103826.16;5071584;28;20063;-68
2023/01/25 01:37:06;;;;;;;42.67;26.20;;;;;;;1.46;100.00;103835.00;5072186;28;20077;-71
2023/01/25 01:39:31;;;;;;;42.38;25.63;;;;;;;1.57;100.00;103832.09;5071923;28;20028;-70
2023/01/25 01:41:56;;;;;;;43.47;26.38;;;;;;;1.59;100.00;103830.44;5072002;28;20048;-70
2023/01/25 01:44:43;;;;;;;43.58;25.30;;;;;;;1.45;100.00;103824.53;5071451;28;20025;-66
2023/01/25 01:47:14;;;;;;;43.95;26.00;;;;;;;1.41;100.00;103826.06;5071806;28;20112;-67
2023/01/25 01:49:39;;;;;;;42.45;26.08;;;;;;;1.37;100.00;103824.13;5071985;28;20061;-69
2023/01/25 01:52:16;;;;;;;44.20;26.85;;;;;;;1.28;100.00;103824.53;5072753;28;20079;-69
2023/01/25 01:55:02;;;;;;;45.80;26.35;;;;;;;1.35;100.00;103828.34;5072143;28;20043;-69
2023/01/25 01:57:42;;;;;;;44.42;26.38;;;;;;;1.32;100.00;103826.47;5072286;28;20052;-70
2023/01/25 02:00:12;;;;;;;43.35;26.35;;;;;;;1.38;100.00;103828.50;5071952;28;20049;-71
2023/01/25 02:02:37;;;;;;;43.63;26.38;;;;;;;1.39;100.00;103832.91;5051449;28;20375;-69
2023/01/25 02:05:04;;;;;;;47.15;26.55;;;;;;;1.33;100.00;103827.38;5051774;28;20482;-70
2023/01/25 02:07:32;;;;;;;42.55;25.77;;;;;;;1.37;100.00;103825.03;5033576;28;20032;-70
2023/01/25 02:09:59;;;;;;;49.85;27.77;;;;;;;1.29;100.00;103825.44;5052211;28;20418;-69
2023/01/25 02:12:25;;;;;;;47.58;26.52;;;;;;;1.26;100.00;103821.84;5051291;28;20571;-70
2023/01/25 02:14:52;;;;;;;49.53;26.00;;;;;;;1.29;100.00;103821.13;5016946;28;20064;-68
2023/01/25 02:17:22;;;;;;;43.97;26.77;;;;;;;1.16;100.00;103819.59;5050584;28;20021;-69
2023/01/25 02:19:49;;;;;;;;;;;;;;;1.35;100.00;103816.25;5033437;28;20033;-68
2023/01/25 02:22:16;;;;;;;42.90;25.25;;;;;;;1.26;100.00;103820.94;5032514;28;19921;-70
2023/01/25 02:24:47;;;;;;;45.30;27.48;;;;;;;1.30;100.00;103816.81;5032224;28;20021;-65
2023/01/25 02:27:12;;;;;;;48.65;27.55;;;;;;;1.41;100.00;103812.22;5016041;28;20087;-69
2023/01/25 02:29:38;;;;;;;44.53;26.10;;;;;;;1.37;100.00;103814.63;5057793;28;20032;-69
2023/01/25 02:32:04;;;;;;;42.97;25.35;;;;;;;1.41;100.00;103809.59;5069474;28;20069;-71
2023/01/25 02:34:30;;;;;;;51.22;29.10;;;;;;;1.35;100.00;103812.75;5068630;28;20035;-70
2023/01/25 02:36:55;;;;;;;48.92;28.83;;;;;;;1.38;100.00;103810.31;5070635;28;20024;-68
2023/01/25 02:39:24;;;;;;;49.88;27.90;;;;;;;1.38;100.00;103802.53;5052965;28;20383;-69
2023/01/25 02:41:49;;;;;;;44.85;25.85;;;;;;;1.39;100.00;103794.81;5070475;28;20029;-71
2023/01/25 02:44:17;;;;;;;50.05;28.90;;;;;;;1.27;100.00;103783.78;5070287;28;20033;-70
2023/01/25 02:46:47;;;;;;;47.00;28.00;;;;;;;1.31;100.00;103790.94;5069983;28;20036;-68
2023/01/25 02:49:13;;;;;;;46.58;26.92;;;;;;;1.26;100.00;103793.28;5068821;28;20467;-70
2023/01/25 02:51:41;;;;;;;51.60;29.40;;;;;;;1.31;100.00;103782.22;5068597;28;20034;-65
2023/01/25 02:54:08;;;;;;;50.95;29.90;;;;;;;1.36;100.00;103781.66;5051633;28;20115;-68
2023/01/25 02:56:34;;;;;;;46.58;27.58;;;;;;;1.30;100.00;103780.44;5068173;28;20029;-70
2023/01/25 02:59:04;;;;;;;47.17;28.00;;;;;;;1.32;100.00;103779.72;5069542;28;20054;-69
2023/01/25 03:01:33;;;;;;;50.83;28.77;;;;;;;1.35;100.00;103771.19;5036366;28;20394;-67
2023/01/25 03:03:58;;;;;;;48.25;27.65;;;;;;;1.35;100.00;103772.06;5069368;28;20025;-73
2023/01/25 03:06:24;;;;;;;50.28;28.50;;;;;;;1.25;100.00;103770.72;5069902;28;20364;-70
2023/01/25 03:08:49;;;;;;;48.20;28.05;;;;;;;1.34;100.00;103772.00;5070018;28;20067;-67
2023/01/25 03:11:14;;;;;;;49.53;27.42;;;;;;;1.35;100.00;103773.78;5069905;28;20017;-70
2023/01/25 03:13:40;;;;;;;52.50;29.45;;;;;;;1.26;100.00;103769.91;5069490;28;20173;-68
2023/01/25 03:16:08;;;;;;;52.70;28.70;;;;;;;1.21;100.00;103775.66;5069371;28;20048;-69
2023/01/25 03:18:34;;;;;;;49.40;27.88;;;;;;;1.28;100.00;103763.88;5067325;28;20050;-70
2023/01/25 03:21:10;;;;;;;51.70;29.45;;;;;;;1.28;100.00;103762.19;5069290;28;20039;-69
2023/01/25 03:23:35;;;;;;;53.17;28.95;;;;;;;1.30;100.00;103762.25;5067770;28;20115;-68
2023/01/25 03:26:21;;;;;;;52.63;28.20;;;;;;;1.16;100.00;103761.53;5068633;28;20143;-69
2023/01/25 03:28:46;;;;;;;52.58;28.98;;;;;;;1.10;100.00;103751.72;5069618;28;20033;-69
2023/01/25 03:31:13;;;;;;;50.10;29.98;;;;;;;1.16;100.00;103748.53;5069152;28;20032;-72
2023/01/25 03:33:39;;;;;;;53.10;28.27;;;;;;;1.12;100.00;103752.69;5068453;28;20025;-68
2023/01/25 03:36:05;;;;;;;52.65;30.42;;;;;;;1.10;100.00;103751.72;5069452;28;20024;-68
2023/01/25 03:38:31;;;;;;;52.83;30.38;;;;;;;0.96;100.00;103745.81;5068984;28;20036;-70
2023/01/25 03:40:57;;;;;;;56.47;30.98;;;;;;;1.09;100.00;103756.00;5069503;28;20035;-68
2023/01/25 03:43:23;;;;;;;51.78;29.00;;;;;;;1.21;100.00;103745.38;5047062;28;20076;-67
2023/01/25 03:45:56;;;;;;;52.30;28.83;;;;;;;1.28;100.00;103750.88;5049688;28;20491;-69
2023/01/25 03:48:22;;;;;;;56.28;29.15;;;;;;;1.13;100.00;103746.69;5047504;28;20045;-67
2023/01/25 03:50:55;;;;;;;52.47;27.25;;;;;;;1.04;100.00;103747.09;5048388;28;20522;-69
2023/01/25 03:53:30;;;;;;;53.63;29.45;;;;;;;1.10;100.00;103733.53;5049350;28;20060;-69
2023/01/25 03:56:07;;;;;;;51.15;28.67;;;;;;;1.11;100.00;103741.41;5030661;28;20075;-70
2023/01/25 03:58:33;;;;;;;54.35;29.90;;;;;;;1.06;100.00;103745.47;5031109;28;20123;-67
2023/01/25 04:00:59;;;;;;;51.67;29.70;;;;;;;0.95;100.00;103744.00;5049004;28;20025;-64
2023/01/25 04:03:25;;;;;;;51.80;28.77;;;;;;;1.10;100.00;103736.13;5048302;28;20108;-71
2023/01/25 04:05:51;;;;;;;52.63;29.80;;;;;;;1.15;100.00;103734.69;5049481;28;20457;-70
2023/01/25 04:08:17;;;;;;;56.35;30.48;;;;;;;0.97;100.00;103740.66;5049729;28;20064;-69
2023/01/25 04:10:42;;;;;;;53.95;28.90;;;;;;;1.05;100.00;103732.41;5049113;28;20472;-70
2023/01/25 04:13:08;;;;;;;54.50;28.88;;;;;;;0.99;100.00;103739.06;5049574;28;20422;-68
2023/01/25 04:15:33;;;;;;;54.65;28.70;;;;;;;0.97;100.00;103732.00;5068543;28;20104;-69
2023/01/25 04:17:59;;;;;;;56.63;30.60;;;;;;;0.98;100.00;103733.78;5067316;28;20537;-68
2023/01/25 04:20:24;;;;;;;53.13;30.38;;;;;;;0.85;100.00;103729.66;5048929;28;20471;-64
2023/01/25 04:22:49;;;;;;;61.58;30.42;;;;;;;0.87;100.00;103731.50;5068839;28;20048;-68
2023/01/25 04:25:15;;;;;;;50.53;28.80;;;;;;;0.92;100.00;103723.97;5069072;28;20094;-68
2023/01/25 04:27:40;;;;;;;54.10;29.73;;;;;;;0.90;100.00;103722.09;5068591;28;20680;-69
2023/01/25 04:30:06;;;;;;;56.53;28.88;;;;;;;0.85;100.00;103729.66;5068957;28;20498;-68
2023/01/25 04:32:34;;;;;;;55.33;29.75;;;;;;;0.88;100.00;103727.22;5068232;28;20394;-68
2023/01/25 04:34:59;;;;;;;54.17;28.40;;;;;;;0.87;100.00;103722.81;5050873;28;20035;-68
2023/01/25 04:37:24;;;;;;;58.47;28.67;;;;;;;0.77;100.00;103718.84;5068317;28;20103;-68
2023/01/25 04:39:50;;;;;;;52.67;28.73;;;;;;;0.76;100.00;103719.66;5068958;28;20082;-70
2023/01/25 04:42:15;;;;;;;54.40;29.48;;;;;;;0.77;100.00;103718.84;5056865;28;20032;-66
2023/01/25 04:44:40;;;;;;;50.45;27.40;;;;;;;0.66;100.00;103723.44;5032261;28;20033;-69
2023/01/25 04:47:06;;;;;;;53.90;28.73;;;;;;;0.67;100.00;103712.28;5051606;28;20383;-66
2023/01/25 04:49:31;;;;;;;51.75;28.70;;;;;;;0.79;100.00;103705.94;5033722;28;20497;-68
2023/01/25 04:51:56;;;;;;;45.08;25.83;;;;;;;0.72;100.00;103697.81;5052515;28;20427;-64
2023/01/25 04:54:22;;;;;;;45.75;25.17;;;;;;;0.68;100.00;103697.56;5052284;28;20483;-69
2023/01/25 04:56:47;;;;;;;48.60;27.02;;;;;;;0.66;100.00;103700.09;5052690;28;20031;-70
2023/01/25 04:59:12;;;;;;;46.08;26.67;;;;;;;0.74;100.00;103696.22;5052196;28;20036;-68
2023/01/25 05:01:38;;;;;;;50.55;25.58;;;;;;;0.74;100.00;103697.91;5051396;28;20063;-70
2023/01/25 05:04:03;;;;;;;52.63;26.90;;;;;;;0.66;100.00;103702.69;5052353;28;20424;-68
2023/01/25 05:06:28;;;;;;;50.63;26.92;;;;;;;0.63;100.00;103698.22;5052041;28;20783;-68
2023/01/25 05:08:54;;;;;;;52.67;28.10;;;;;;;0.56;100.00;103700.41;5060135;28;20530;-69
2023/01/25 05:11:19;;;;;;;57.13;29.45;;;;;;;0.62;100.00;103695.56;5054954;28;20482;-69
2023/01/25 05:13:44;;;;;;;58.20;29.15;;;;;;;0.63;100.00;103697.31;5062732;28;20475;-65
2023/01/25 05:16:09;;;;;;;58.97;29.58;;;;;;;0.61;100.00;103693.78;5052099;28;20456;-68
2023/01/25 05:18:35;;;;;;;53.22;28.77;;;;;;;0.52;100.00;103701.06;5056976;28;20725;-65
2023/01/25 05:21:00;;;;;;;58.15;29.75;;;;;;;0.62;100.00;103695.56;5071707;28;20467;-68
2023/01/25 05:23:25;;;;;;;58.40;29.55;;;;;;;0.58;100.00;103698.78;5071001;28;20452;-68
2023/01/25 05:28:35;;;;;;;60.30;30.10;;;;;;;0.70;100.00;103699.47;5050171;28;20098;-67
2023/01/25 05:31:03;;;;;;;57.65;29.75;;;;;;;0.74;100.00;103690.13;5071144;28;20455;-68
2023/01/25 05:33:29;;;;;;;55.53;29.63;;;;;;;0.70;100.00;103694.28;5041065;28;20044;-68
2023/01/25 05:35:55;;;;;;;51.47;27.70;;;;;;;0.78;100.00;103680.81;5066522;28;20553;-63
2023/01/25 05:38:20;;;;;;;54.58;29.38;;;;;;;0.78;100.00;103689.47;5065136;28;20043;-68
2023/01/25 05:40:45;;;;;;;60.60;30.85;;;;;;;0.73;100.00;103690.94;5059677;28;20082;-70
2023/01/25 05:43:11;;;;;;;56.97;30.63;;;;;;;0.68;100.00;103693.28;5064137;28;20063;-63
2023/01/25 05:45:36;;;;;;;57.65;31.08;;;;;;;0.73;100.00;103694.41;5059293;28;20028;-68
2023/01/25 05:48:02;;;;;;;60.05;31.58;;;;;;;0.72;100.00;103690.03;5060433;28;20044;-68
2023/01/25 05:50:27;;;;;;;60.28;30.58;;;;;;;0.69;100.00;103687.28;5067165;28;20047;-70
2023/01/25 05:52:52;;;;;;;62.50;30.45;;;;;;;0.60;100.00;103692.88;5063386;28;20397;-64
2023/01/25 05:55:18;;;;;;;57.40;29.75;;;;;;;0.52;100.00;103698.47;5051112;28;20017;-69
2023/01/25 05:57:43;;;;;;;62.38;30.95;;;;;;;0.58;100.00;103694.50;5061766;28;20047;-69
2023/01/25 06:00:10;;;;;;;56.95;29.98;;;;;;;0.44;100.00;103688.56;5071266;28;20036;-69
2023/01/25 06:02:35;;;;;;;63.53;31.17;;;;;;;0.58;100.00;103688.41;5050140;28;20060;-67
2023/01/25 06:05:01;;;;;;;54.03;27.55;;;;;;;0.58;100.00;103694.50;5051210;28;20108;-69
2023/01/25 06:07:26;;;;;;;57.78;29.15;;;;;;;0.46;100.00;103693.84;5033007;28;20157;-66
2023/01/25 06:09:52;;;;;;;56.55;28.80;;;;;;;0.42;100.00;103699.66;5051012;28;20742;-67
2023/01/25 06:12:21;;;;;;;53.38;28.10;;;;;;;0.54;100.00;103699.44;5054472;28;20485;-69
2023/01/25 06:14:46;;;;;;;54.70;28.90;;;;;;;0.47;100.00;103699.09;5054940;28;20454;-66
2023/01/25 06:17:12;;;;;;;53.88;28.13;;;;;;;0.49;100.00;103697.47;5055678;28;20060;-70
2023/01/25 06:19:38;;;;;;;56.30;29.17;;;;;;;0.59;100.00;103695.38;5056673;28;20337;-70
2023/01/25 06:22:03;;;;;;;56.05;29.63;;;;;;;0.55;100.00;103694.34;5074490;28;20040;-69
2023/01/25 06:24:29;;;;;;;62.03;30.63;;;;;;;0.49;100.00;103694.00;5073888;28;20085;-69
2023/01/25 06:26:54;;;;;;;62.45;31.00;;;;;;;0.48;100.00;103698.28;5075452;28;20104;-70
2023/01/25 06:29:20;;;;;;;59.53;28.95;;;;;;;0.40;100.00;103694.41;5075185;28;20425;-66
2023/01/25 06:31:45;;;;;;;61.63;30.27;;;;;;;0.42;100.00;103687.56;5055548;28;20363;-69
2023/01/25 06:34:10;;;;;;;55.25;29.02;;;;;;;0.46;100.00;103692.16;5074461;28;20035;-70
2023/01/25 06:36:35;;;;;;;59.40;31.38;;;;;;;0.37;100.00;103683.84;5074689;28;20025;-70
2023/01/25 06:39:01;;;;;;;55.17;29.15;;;;;;;0.43;100.00;103684.19;5075266;28;20146;-69
2023/01/25 06:41:26;;;;;;;60.67;29.30;;;;;;;0.52;100.00;103682.88;5075038;28;20028;-71
2023/01/25 06:43:52;;;;;;;62.88;31.52;;;;;;;0.42;100.00;103684.97;5075441;28;20031;-68
2023/01/25 06:46:17;;;;;;;64.88;31.15;;;;;;;0.42;100.00;103691.88;5062130;28;20029;-68
2023/01/25 06:48:43;;;;;;;64.38;31.23;;;;;;;0.56;100.00;103687.44;5054840;28;20084;-68
2023/01/25 06:51:10;;;;;;;63.08;31.17;;;;;;;0.59;100.00;103678.13;5053888;28;20093;-69
2023/01/25 06:53:38;;;;;;;63.58;31.58;;;;;;;0.48;100.00;103677.53;5036970;28;20024;-67
2023/01/25 06:56:16;;;;;;;63.47;31.85;;;;;;;0.67;100.00;103688.00;5054578;28;20104;-68
2023/01/25 06:58:42;;;;;;;65.53;31.35;;;;;;;0.74;100.00;103685.84;5057052;28;20110;-64
2023/01/25 07:01:12;;;;;;;62.13;31.48;;;;;;;0.69;100.00;103682.09;5072811;28;20032;-66
2023/01/25 07:03:38;;;;;;;60.28;31.30;;;;;;;0.79;100.00;103682.59;5062071;28;20074;-67
2023/01/25 07:06:05;;;;;;;60.88;29.95;;;;;;;0.80;100.00;103669.69;5057139;28;20112;-69
2023/01/25 07:08:32;;;;;;;63.88;31.75;;;;;;;0.74;100.00;103667.66;5051399;28;20032;-73
2023/01/25 07:11:03;;;;;;;62.30;30.67;;;;;;;0.66;100.00;103676.72;5033936;28;20459;-69
2023/01/25 07:13:30;;;;;;;62.00;31.17;;;;;;;0.70;100.00;103672.59;5059180;28;20024;-69
2023/01/25 07:16:02;;;;;;;60.03;30.95;;;;;;;0.62;100.00;103669.59;5045838;28;20040;-68
2023/01/25 07:18:29;;;;;;;58.45;29.45;;;;;;;0.73;100.00;103672.78;5061435;28;20483;-69
2023/01/25 07:20:55;;;;;;;62.88;31.33;;;;;;;0.72;100.00;103671.88;5061662;28;20053;-69
2023/01/25 07:23:20;;;;;;;59.05;30.38;;;;;;;0.87;100.00;103678.66;5033116;28;20036;-70
2023/01/25 07:25:47;;;;;;;64.18;32.38;;;;;;;0.80;100.00;103680.06;5052757;28;20060;-66
2023/01/25 07:28:13;;;;;;;60.97;31.50;;;;;;;0.75;100.00;103679.81;5058920;28;20021;-69
2023/01/25 07:30:39;;;;;;;65.40;31.80;;;;;;;0.69;100.00;103671.69;5059657;28;20036;-68
2023/01/25 07:33:04;;;;;;;61.47;30.25;;;;;;;0.62;100.00;103673.09;5056385;28;20489;-68
2023/01/25 07:35:31;;;;;;;65.38;31.77;;;;;;;0.50;100.00;103668.13;5058617;28;20485;-68
2023/01/25 07:37:56;;;;;;;64.35;31.73;;;;;;;0.59;100.00;103669.44;5067868;28;20024;-71
2023/01/25 07:40:24;;;;;;;65.13;32.35;;;;;;;0.71;100.00;103657.13;5067171;28;20032;-65
2023/01/25 07:42:50;;;;;;;65.43;32.22;;;;;;;0.81;100.00;103655.00;5069839;28;20475;-68
2023/01/25 07:45:16;;;;;;;69.88;32.75;;;;;;;0.80;100.00;103655.81;5069534;28;20036;-69
2023/01/25 07:47:41;;;;;;;64.25;33.20;;;;;;;0.93;100.00;103650.44;5068028;28;20028;-70
2023/01/25 07:50:07;;;;;;;64.63;32.30;;;;;;;0.95;100.00;103651.44;5056419;28;20028;-68
2023/01/25 07:52:32;;;;;;;66.07;32.50;;;;;;;0.94;100.00;103640.97;5048980;28;20391;-70
2023/01/25 07:54:58;;;;;;;66.65;33.30;;;;;;;0.97;100.00;103642.00;5030868;28;20032;-73
2023/01/25 07:57:24;;;;;;;64.30;32.03;;;;;;;0.93;100.00;103642.66;5048585;28;20471;-64
2023/01/25 07:59:49;;;;;;;63.00;31.75;;;;;;;0.85;100.00;103639.66;5049541;28;20472;-68
2023/01/25 08:02:15;;;;;;;72.65;35.35;;;;;;;0.79;100.00;103636.75;5048816;28;20036;-68
2023/01/25 08:04:41;;;;;;;68.68;32.00;;;;;;;0.83;100.00;103637.78;5048850;28;20517;-65
2023/01/25 08:07:07;;;;;;;65.00;32.50;;;;;;;0.84;100.00;103639.59;5058164;28;20091;-66
2023/01/25 08:09:32;;;;;;;68.40;33.17;;;;;;;0.94;100.00;103640.97;5069431;28;20482;-66
2023/01/25 08:11:57;;;;;;;67.28;34.13;;;;;;;0.89;100.00;103643.31;5046522;28;20029;-67
2023/01/25 08:14:23;;;;;;;66.78;32.42;;;;;;;0.89;100.00;103638.13;5047230;28;20044;-67
2023/01/25 08:16:49;;;;;;;68.47;33.80;;;;;;;0.80;100.00;103637.63;5046401;28;20494;-68
2023/01/25 08:19:14;;;;;;;65.32;32.58;;;;;;;0.92;100.00;103638.28;5048729;28;20029;-67
2023/01/25 08:21:40;;;;;;;65.68;32.70;;;;;;;0.89;100.00;103643.31;5058493;28;20044;-69
2023/01/25 08:24:06;;;;;;;67.57;33.55;;;;;;;0.93;100.00;103645.25;5071315;28;20024;-69
2023/01/25 08:26:32;;;;;;;65.88;31.45;;;;;;;0.88;100.00;103636.34;5070702;28;20024;-66
2023/01/25 08:28:58;;;;;;;69.75;34.83;;;;;;;0.87;100.00;103639.72;5071754;28;20111;-68
2023/01/25 08:31:29;;;;;;;70.75;33.35;;;;;;;0.87;100.00;103642.31;5049245;28;20025;-64
2023/01/25 08:33:55;;;;;;;70.30;31.77;;;;;;;0.85;100.00;103637.06;5072047;28;20048;-63
2023/01/25 08:36:22;;;;;;;63.80;32.33;;;;;;;0.90;100.00;103639.91;5072167;28;20612;-68
2023/01/25 08:38:55;;;;;;;67.00;32.67;;;;;;;0.88;100.00;103638.94;5159525;22;20114;-70
2023/01/25 08:41:21;;;;;;;71.25;33.30;;;;;;;0.71;100.00;103641.53;5052638;28;20029;-71
2023/01/25 08:43:46;;;;;;;66.13;33.38;;;;;;;0.92;100.00;103634.78;5051766;28;20501;-70
2023/01/25 08:46:14;;;;;;;76.13;35.70;;;;;;;0.82;100.00;103626.53;5032304;28;20052;-71
2023/01/25 08:48:39;;;;;;;67.22;32.22;;;;;;;0.92;100.00;103622.69;5051251;28;20027;-70
2023/01/25 08:51:08;;;;;;;69.82;33.80;;;;;;;0.95;100.00;103627.16;5052607;28;20336;-68
2023/01/25 08:53:33;;;;;;;68.95;33.97;;;;;;;0.85;100.00;103628.41;5051756;28;20025;-71
2023/01/25 08:56:03;;;;;;;72.63;33.22;;;;;;;0.69;100.00;103624.13;5052394;28;20116;-72
2023/01/25 08:58:30;;;;;;;70.75;32.85;;;;;;;0.72;100.00;103622.56;5051779;28;20371;-71
2023/01/25 09:01:03;;;;;;;75.03;34.85;;;;;;;0.83;100.00;103623.13;5056253;28;20021;-70
2023/01/25 09:03:29;;;;;;;69.63;34.63;;;;;;;0.97;100.00;103616.03;5070270;28;20028;-70
2023/01/25 09:05:54;;;;;;;74.63;34.05;;;;;;;0.97;100.00;103616.03;5070176;28;20027;-74
2023/01/25 09:08:20;;;;;;;73.82;36.05;;;;;;;0.85;100.00;103620.59;5067532;28;20064;-71
2023/01/25 09:10:45;;;;;;;70.80;35.00;;;;;;;0.91;100.00;103620.03;5051542;28;20025;-72
2023/01/25 09:13:11;;;;;;;74.53;35.95;;;;;;;0.93;100.00;103603.69;5033008;28;20075;-71
2023/01/25 09:15:37;;;;;;;76.57;35.78;;;;;;;0.90;100.00;103613.94;5051185;28;20142;-71
2023/01/25 09:18:02;;;;;;;73.18;35.75;;;;;;;1.04;100.00;103599.06;5050748;28;20059;-71
2023/01/25 09:20:28;;;;;;;75.80;35.33;;;;;;;1.09;100.00;103605.38;5051358;28;20056;-71
2023/01/25 09:22:54;;;;;;;74.30;36.45;;;;;;;1.00;100.00;103598.00;5033475;28;20055;-67
2023/01/25 09:25:19;;;;;;;78.35;36.08;;;;;;;1.02;100.00;103607.59;5051007;28;20078;-73
2023/01/25 09:27:48;;;;;;;80.55;38.45;;;;;;;0.97;100.00;103605.63;5049436;28;20504;-73
2023/01/25 09:30:14;;;;;;;;;;;;;;;0.98;100.00;103607.44;5049332;28;20036;-71
2023/01/25 09:32:39;;;;;;;75.15;36.22;;;;;;;1.06;100.00;103604.34;5053612;28;19923;-73
2023/01/25 09:35:05;;;;;;;76.93;36.53;;;;;;;1.08;100.00;103595.81;5050477;28;20454;-71
2023/01/25 09:37:30;;;;;;;79.43;38.08;;;;;;;1.07;100.00;103588.84;5053919;28;20491;-71
2023/01/25 09:39:55;;;;;;;77.78;37.25;;;;;;;1.20;100.00;103582.53;5055104;28;20079;-73
2023/01/25 09:42:53;;;;;;;81.97;38.47;;;;;;;1.19;100.00;103585.97;5056220;28;20055;-73
2023/01/25 09:45:34;;;;;;;81.22;37.85;;;;;;;1.23;100.00;103585.28;5018293;28;20378;-70
2023/01/25 09:48:19;;;;;;;79.07;37.60;;;;;;;1.28;100.00;103579.41;5052829;28;20040;-72
2023/01/25 09:50:44;;;;;;;86.07;38.78;;;;;;;1.17;100.00;103574.59;5051966;28;20033;-72
2023/01/25 09:53:19;;;;;;;76.00;38.00;;;;;;;1.15;100.00;103577.94;5058556;28;20230;-72
2023/01/25 09:55:49;;;;;;;81.47;37.95;;;;;;;1.21;100.00;103581.72;5051735;28;20024;-73
2023/01/25 09:58:31;;;;;;;77.40;37.40;;;;;;;1.42;100.00;103567.13;5056218;28;20207;-74
2023/01/25 10:01:42;;;;;;;81.90;38.55;;;;;;;1.54;100.00;103564.22;5031861;28;20033;-73
2023/01/25 10:04:25;;;;;;;70.50;35.05;;;;;;;1.29;100.00;103563.91;5040096;28;20076;-73
2023/01/25 10:06:59;;;;;;;76.32;34.67;;;;;;;1.49;100.00;103553.59;5055686;28;20039;-67
2023/01/25 10:09:33;;;;;;;74.70;33.75;;;;;;;1.60;100.00;103551.53;5038189;28;20029;-74
2023/01/25 10:12:05;;;;;;;71.20;33.90;;;;;;;1.49;100.00;103554.50;5053983;28;20029;-72
2023/01/25 10:14:34;;;;;;;74.85;35.20;;;;;;;1.50;100.00;103544.97;5039312;28;20493;-72
2023/01/25 10:17:30;;;;;;;76.15;35.38;;;;;;;1.32;100.00;103535.50;5055714;28;20036;-73
2023/01/25 10:19:58;;;;;;;75.78;35.08;;;;;;;1.30;100.00;103542.34;5053467;28;20032;-72
2023/01/25 10:22:28;;;;;;;73.13;35.60;;;;;;;1.25;100.00;103530.81;5052976;28;20075;-73
2023/01/25 10:25:12;;;;;;;78.43;36.63;;;;;;;1.25;100.00;103531.72;5049770;28;20403;-74
2023/01/25 10:27:57;;;;;;;78.75;36.15;;;;;;;1.26;100.00;103530.00;5035551;28;20032;-74
2023/01/25 10:30:30;;;;;;;75.32;35.35;;;;;;;1.27;100.00;103526.59;5049532;28;20055;-73
2023/01/25 10:33:01;;;;;;;77.53;35.92;;;;;;;1.29;100.00;103530.13;5030629;28;20025;-72
2023/01/25 10:35:36;;;;;;;79.63;36.58;;;;;;;1.28;100.00;103519.66;5030356;28;20045;-72
2023/01/25 10:38:12;;;;;;;74.70;35.53;;;;;;;1.41;100.00;103529.84;5031927;28;20052;-73
2023/01/25 10:40:42;;;;;;;80.15;36.40;;;;;;;1.42;100.00;103520.34;5049316;28;20035;-73
2023/01/25 10:43:16;;;;;;;82.07;39.35;;;;;;;1.28;100.00;103510.19;5031295;28;20379;-71
2023/01/25 10:45:43;;;;;;;82.40;38.17;;;;;;;1.24;100.00;103516.94;5013358;28;20337;-71
2023/01/25 10:48:14;;;;;;;83.63;39.13;;;;;;;1.19;100.00;103510.63;5048571;28;20029;-71
2023/01/25 10:50:45;;;;;;;84.72;38.10;;;;;;;1.23;100.00;103509.97;5031007;28;20040;-72
2023/01/25 10:53:28;;;;;;;80.70;38.50;;;;;;;1.23;100.00;103504.75;5049816;28;20021;-68
2023/01/25 10:56:20;;;;;;;75.55;35.58;;;;;;;1.44;100.00;103498.81;5030973;28;20021;-68
2023/01/25 10:58:47;;;;;;;80.18;37.10;;;;;;;1.43;100.00;103499.63;5049064;28;20116;-69
2023/01/25 11:01:26;;;;;;;78.70;35.95;;;;;;;1.29;100.00;103477.31;5051622;28;20234;-73
2023/01/25 11:03:52;;;;;;;74.05;35.55;;;;;;;1.47;100.00;103477.25;5030929;28;20032;-71
2023/01/25 11:06:35;;;;;;;81.47;35.75;;;;;;;1.52;100.00;103460.19;5029597;28;20029;-71
2023/01/25 11:09:05;;;;;;;75.47;35.17;;;;;;;1.64;100.00;103465.06;5048197;28;20091;-72
2023/01/25 11:11:35;;;;;;;72.50;34.35;;;;;;;1.63;100.00;103463.28;5050826;28;20028;-73
2023/01/25 11:14:02;;;;;;;78.93;35.92;;;;;;;1.52;100.00;103457.59;5063545;28;20116;-74
2023/01/25 11:16:34;;;;;;;76.40;35.08;;;;;;;1.39;100.00;103454.41;5029667;28;20070;-73